createdAt,value
2019-03-19T00:00:53.834Z,3.20
2019-03-19T00:03:22.472Z,4.40
2019-03-19T00:05:51.332Z,2.30
2019-03-19T00:08:19.935Z,2.98
2019-03-19T00:10:48.780Z,3.75
2019-03-19T00:13:17.621Z,3.52
2019-03-19T00:15:46.325Z,3.37
2019-03-19T00:18:15.153Z,3.45
2019-03-19T00:20:44.014Z,3.92
2019-03-19T00:23:12.614Z,4.20
2019-03-19T00:25:41.226Z,4.00
2019-03-19T00:28:09.887Z,2.87
2019-03-19T00:30:38.746Z,3.00
2019-03-19T00:33:07.418Z,5.97
2019-03-19T00:35:36.012Z,4.58
2019-03-19T00:38:04.941Z,3.98
2019-03-19T00:40:33.575Z,4.53
2019-03-19T00:43:02.471Z,4.50
2019-03-19T00:45:31.076Z,4.80
2019-03-19T00:47:59.700Z,5.40
2019-03-19T00:50:28.294Z,4.77
2019-03-19T00:52:57.140Z,4.97
2019-03-19T00:55:26.208Z,4.50
2019-03-19T00:57:54.908Z,5.17
2019-03-19T01:00:23.833Z,4.83
2019-03-19T01:02:52.734Z,4.67
2019-03-19T01:05:21.568Z,4.80
2019-03-19T01:07:50.656Z,5.37
2019-03-19T01:10:19.362Z,5.75
2019-03-19T01:12:47.995Z,4.92
2019-03-19T01:15:16.923Z,4.97
2019-03-19T01:17:45.792Z,4.80
2019-03-19T01:20:14.533Z,6.53
2019-03-19T01:22:43.530Z,4.67
2019-03-19T01:25:12.140Z,4.23
2019-03-19T01:27:41.072Z,6.47
2019-03-19T01:30:10.407Z,6.17
2019-03-19T01:32:39.012Z,8.40
2019-03-19T01:35:07.747Z,9.03
2019-03-19T01:37:37.608Z,9.43
2019-03-19T01:40:06.525Z,5.10
2019-03-19T01:42:35.133Z,5.42
2019-03-19T01:45:03.871Z,5.05
2019-03-19T01:47:32.458Z,4.72
2019-03-19T01:50:01.082Z,4.83
2019-03-19T01:52:29.946Z,4.25
2019-03-19T01:54:58.529Z,5.42
2019-03-19T01:57:27.370Z,4.62
2019-03-19T01:59:55.958Z,5.58
2019-03-19T02:02:24.550Z,4.50
2019-03-19T02:04:53.128Z,4.22
2019-03-19T02:07:21.990Z,4.10
2019-03-19T02:09:50.847Z,6.20
2019-03-19T02:12:19.707Z,4.95
2019-03-19T02:14:48.540Z,4.60
2019-03-19T02:17:17.601Z,4.17
2019-03-19T02:19:46.215Z,4.22
2019-03-19T02:22:15.041Z,4.30
2019-03-19T02:24:43.630Z,4.03
2019-03-19T02:27:12.481Z,3.70
2019-03-19T02:29:41.069Z,3.58
2019-03-19T02:32:09.928Z,3.70
2019-03-19T02:34:38.827Z,5.08
2019-03-19T02:37:07.457Z,4.58
2019-03-19T02:39:36.027Z,4.10
2019-03-19T02:42:04.719Z,4.72
2019-03-19T02:44:33.569Z,4.60
2019-03-19T02:47:02.395Z,5.10
2019-03-19T02:49:31.002Z,4.17
2019-03-19T02:51:59.596Z,3.65
2019-03-19T02:54:28.419Z,3.98
2019-03-19T02:56:57.013Z,4.28
2019-03-19T02:59:25.842Z,4.28
2019-03-19T03:01:54.425Z,4.12
2019-03-19T03:04:23.058Z,3.90
2019-03-19T03:06:52.133Z,3.85
2019-03-19T03:09:20.745Z,4.42
2019-03-19T03:11:49.580Z,3.98
2019-03-19T03:14:18.445Z,3.55
2019-03-19T03:16:47.047Z,3.83
2019-03-19T03:19:15.913Z,3.22
2019-03-19T03:21:44.503Z,4.47
2019-03-19T03:24:13.383Z,5.87
2019-03-19T03:26:48.039Z,4.95
2019-03-19T03:29:12.331Z,4.42
2019-03-19T03:31:40.912Z,4.78
2019-03-19T03:34:09.542Z,3.50
2019-03-19T03:36:38.142Z,4.75
2019-03-19T03:39:08.156Z,3.40
2019-03-19T03:41:37.205Z,2.60
2019-03-19T03:44:06.004Z,3.00
2019-03-19T03:46:34.606Z,3.72
2019-03-19T03:49:03.556Z,3.00
2019-03-19T03:51:32.421Z,3.42
2019-03-19T03:54:01.032Z,3.25
2019-03-19T03:56:29.655Z,3.85
2019-03-19T03:59:01.092Z,4.15
2019-03-19T04:01:29.465Z,3.40
2019-03-19T04:03:58.089Z,3.80
2019-03-19T04:06:26.675Z,3.12
2019-03-19T04:08:55.320Z,3.45
2019-03-19T04:11:24.242Z,3.40
2019-03-19T04:13:53.126Z,3.40
2019-03-19T04:16:21.961Z,4.00
2019-03-19T04:18:50.807Z,5.62
2019-03-19T04:21:19.434Z,5.10
2019-03-19T04:23:48.106Z,2.95
2019-03-19T04:26:16.710Z,3.10
2019-03-19T04:28:45.589Z,4.00
2019-03-19T04:31:14.420Z,3.60
2019-03-19T04:33:43.994Z,4.20
2019-03-19T04:36:12.814Z,3.23
2019-03-19T04:38:41.688Z,2.90
2019-03-19T04:41:10.511Z,3.35
2019-03-19T04:43:39.111Z,3.80
2019-03-19T04:46:07.754Z,3.40
2019-03-19T04:48:36.367Z,3.33
2019-03-19T04:51:04.970Z,3.40
2019-03-19T04:53:33.589Z,2.65
2019-03-19T04:56:02.429Z,4.03
2019-03-19T04:58:31.276Z,5.05
2019-03-19T05:00:59.856Z,3.60
2019-03-19T05:03:28.503Z,4.17
2019-03-19T05:05:59.525Z,4.15
2019-03-19T05:08:28.171Z,4.60
2019-03-19T05:10:57.239Z,4.85
2019-03-19T05:13:25.864Z,4.55
2019-03-19T05:15:54.437Z,4.33
2019-03-19T05:18:23.076Z,2.30
2019-03-19T05:20:51.951Z,2.87
2019-03-19T05:23:20.552Z,4.42
2019-03-19T05:25:49.152Z,1.92
2019-03-19T05:28:17.769Z,1.90
2019-03-19T05:30:46.610Z,3.25
2019-03-19T05:33:15.436Z,2.83
2019-03-19T05:35:44.083Z,2.50
2019-03-19T05:38:12.915Z,3.83
2019-03-19T05:40:41.549Z,2.87
2019-03-19T05:43:10.171Z,2.58
2019-03-19T05:45:38.770Z,3.02
2019-03-19T05:48:07.375Z,2.83
2019-03-19T05:50:36.501Z,6.40
2019-03-19T05:53:05.165Z,4.70
2019-03-19T05:55:33.776Z,3.02
2019-03-19T05:58:02.396Z,2.75
2019-03-19T06:00:32.137Z,2.87
2019-03-19T06:03:01.112Z,3.10
2019-03-19T06:05:29.709Z,3.37
2019-03-19T06:07:58.331Z,4.62
2019-03-19T06:10:26.971Z,3.60
2019-03-19T06:12:55.830Z,3.47
2019-03-19T06:15:24.438Z,3.15
2019-03-19T06:17:53.035Z,3.22
2019-03-19T06:20:21.724Z,3.05
2019-03-19T06:22:50.579Z,3.58
2019-03-19T06:25:19.209Z,3.27
2019-03-19T06:27:47.791Z,3.40
2019-03-19T06:30:17.508Z,2.60
2019-03-19T06:32:46.180Z,3.30
2019-03-19T06:35:14.777Z,2.80
2019-03-19T06:37:43.464Z,3.90
2019-03-19T06:40:13.056Z,3.98
2019-03-19T06:42:41.915Z,2.65
2019-03-19T06:45:12.193Z,2.92
2019-03-19T06:47:40.810Z,3.77
2019-03-19T06:50:10.453Z,5.93
2019-03-19T06:52:39.132Z,4.37
2019-03-19T06:55:09.288Z,3.45
2019-03-19T06:57:39.425Z,3.22
2019-03-19T07:00:11.352Z,3.37
2019-03-19T07:02:40.218Z,2.83
2019-03-19T07:05:09.159Z,3.13
2019-03-19T07:07:38.261Z,3.40
2019-03-19T07:10:07.203Z,2.83
2019-03-19T07:12:36.111Z,2.57
2019-03-19T07:15:05.686Z,3.13
2019-03-19T07:17:34.540Z,2.60
2019-03-19T07:20:03.480Z,3.30
2019-03-19T07:22:32.096Z,3.62
2019-03-19T07:25:00.700Z,3.53
2019-03-19T07:27:29.399Z,3.43
2019-03-19T07:29:58.281Z,2.73
2019-03-19T07:32:27.345Z,3.20
2019-03-19T07:34:56.193Z,4.08
2019-03-19T07:37:25.040Z,3.13
2019-03-19T07:39:53.851Z,3.30
2019-03-19T07:42:22.730Z,3.50
2019-03-19T07:44:51.578Z,2.63
2019-03-19T07:47:20.175Z,4.03
2019-03-19T07:49:49.021Z,3.90
2019-03-19T07:52:17.872Z,3.10
2019-03-19T07:54:46.486Z,4.50
2019-03-19T07:57:15.088Z,3.40
2019-03-19T07:59:43.728Z,3.03
2019-03-19T08:02:12.587Z,3.30
2019-03-19T08:04:41.174Z,2.30
2019-03-19T08:07:09.821Z,2.83
2019-03-19T08:09:38.760Z,3.00
2019-03-19T08:12:07.447Z,2.83
2019-03-19T08:14:36.531Z,3.20
2019-03-19T08:17:05.227Z,3.20
2019-03-19T08:19:34.082Z,3.57
2019-03-19T08:22:02.723Z,3.70
2019-03-19T08:24:31.342Z,3.70
2019-03-19T08:27:00.470Z,2.67
2019-03-19T08:29:29.119Z,2.80
2019-03-19T08:31:57.744Z,3.60
2019-03-19T08:34:26.655Z,3.30
2019-03-19T08:36:55.268Z,2.73
2019-03-19T08:39:23.901Z,3.57
2019-03-19T08:41:52.500Z,3.07
2019-03-19T08:44:27.743Z,2.40
2019-03-19T08:46:51.704Z,3.13
2019-03-19T08:49:22.287Z,2.50
2019-03-19T08:51:51.099Z,2.30
2019-03-19T08:54:19.695Z,2.90
2019-03-19T08:56:48.552Z,2.43
2019-03-19T08:59:17.246Z,2.17
2019-03-19T09:01:47.408Z,2.00
2019-03-19T09:04:16.302Z,2.30
2019-03-19T09:06:44.910Z,2.17
2019-03-19T09:09:14.006Z,2.37
2019-03-19T09:11:42.842Z,1.73
2019-03-19T09:14:11.447Z,2.73
2019-03-19T09:16:40.080Z,2.00
2019-03-19T09:19:08.649Z,1.97
2019-03-19T09:21:37.291Z,4.23
2019-03-19T09:24:06.159Z,2.23
2019-03-19T09:26:35.041Z,2.00
2019-03-19T09:29:03.810Z,2.77
2019-03-19T09:31:32.673Z,2.10
2019-03-19T09:34:01.252Z,1.80
2019-03-19T09:36:29.843Z,1.80
2019-03-19T09:38:58.435Z,2.00
2019-03-19T09:41:27.014Z,1.90
2019-03-19T09:43:55.610Z,1.63
2019-03-19T09:46:24.185Z,1.97
2019-03-19T09:48:52.836Z,1.93
2019-03-19T09:51:21.664Z,1.93
2019-03-19T09:53:50.360Z,1.30
2019-03-19T09:56:18.969Z,2.13
2019-03-19T09:58:47.795Z,2.27
2019-03-19T10:01:16.675Z,1.47
2019-03-19T10:03:45.537Z,1.50
2019-03-19T10:06:14.663Z,1.50
2019-03-19T10:08:43.555Z,1.60
2019-03-19T10:11:12.141Z,1.77
2019-03-19T10:13:40.996Z,1.53
2019-03-19T10:16:09.628Z,1.80
2019-03-19T10:18:38.705Z,1.43
2019-03-19T10:21:07.325Z,1.60
2019-03-19T10:23:36.181Z,1.67
2019-03-19T10:26:04.933Z,1.70
2019-03-19T10:28:33.556Z,1.37
2019-03-19T10:31:02.406Z,1.57
2019-03-19T10:33:31.223Z,1.53
2019-03-19T10:35:59.845Z,1.90
2019-03-19T10:38:28.464Z,1.67
2019-03-19T10:40:57.056Z,1.70
2019-03-19T10:43:25.663Z,1.90
2019-03-19T10:45:54.298Z,2.10
2019-03-19T10:48:22.882Z,2.43
2019-03-19T10:50:51.725Z,1.50
2019-03-19T10:53:20.826Z,1.90
2019-03-19T10:55:49.664Z,1.77
2019-03-19T10:58:18.513Z,2.10
2019-03-19T11:00:47.097Z,1.70
2019-03-19T11:03:15.758Z,1.53
2019-03-19T11:05:44.371Z,1.70
2019-03-19T11:08:12.955Z,2.17
2019-03-19T11:10:41.556Z,1.90
2019-03-19T11:13:10.403Z,1.70
2019-03-19T11:15:39.020Z,1.77
2019-03-19T11:18:07.943Z,2.40
2019-03-19T11:20:36.616Z,1.60
2019-03-19T11:23:05.233Z,2.40
2019-03-19T11:25:33.825Z,1.50
2019-03-19T11:28:02.501Z,1.80
2019-03-19T11:30:31.168Z,1.57
2019-03-19T11:32:59.803Z,1.60
2019-03-19T11:35:29.041Z,1.13
2019-03-19T11:37:57.752Z,1.80
2019-03-19T11:40:27.494Z,1.50
2019-03-19T11:42:56.076Z,1.30
2019-03-19T11:45:25.272Z,1.20
2019-03-19T11:47:53.932Z,1.33
2019-03-19T11:50:22.975Z,1.20
2019-03-19T11:52:51.992Z,1.33
2019-03-19T11:55:20.832Z,1.63
2019-03-19T11:57:49.461Z,2.30
2019-03-19T12:00:30.051Z,1.97
2019-03-19T12:02:58.761Z,2.03
2019-03-19T12:05:27.675Z,1.63
2019-03-19T12:07:56.547Z,1.60
2019-03-19T12:10:25.189Z,1.20
2019-03-19T12:12:53.783Z,1.47
2019-03-19T12:15:22.366Z,1.40
2019-03-19T12:17:50.985Z,1.00
2019-03-19T12:20:20.918Z,0.80
2019-03-19T12:22:49.631Z,1.30
2019-03-19T12:25:18.467Z,1.03
2019-03-19T12:27:47.189Z,0.90
2019-03-19T12:30:22.323Z,1.53
2019-03-19T12:32:46.419Z,1.00
2019-03-19T12:35:15.561Z,0.20
2019-03-19T12:37:44.415Z,0.00
2019-03-19T12:40:13.749Z,0.00
2019-03-19T12:42:42.609Z,0.00
2019-03-19T12:45:12.790Z,0.00
2019-03-19T12:47:41.398Z,0.00
2019-03-19T12:50:11.889Z,0.00
2019-03-19T12:52:40.498Z,0.10
2019-03-19T12:55:09.221Z,0.10
2019-03-19T12:57:37.847Z,0.00
2019-03-19T13:00:10.017Z,0.07
2019-03-19T13:02:38.848Z,0.00
2019-03-19T13:05:07.844Z,0.00
2019-03-19T13:07:39.425Z,0.00
2019-03-19T13:10:09.957Z,0.00
2019-03-19T13:12:38.591Z,0.00
2019-03-19T13:15:07.548Z,0.00
2019-03-19T13:17:36.449Z,0.00
2019-03-19T13:20:05.779Z,0.00
2019-03-19T13:22:34.351Z,0.00
2019-03-19T13:25:03.236Z,0.00
2019-03-19T13:27:32.059Z,0.00
2019-03-19T13:30:00.663Z,0.00
2019-03-19T13:32:29.241Z,0.00
2019-03-19T13:34:57.870Z,0.00
2019-03-19T13:37:26.477Z,0.00
2019-03-19T13:39:55.307Z,0.00
2019-03-19T13:42:23.908Z,0.00
2019-03-19T13:44:52.738Z,0.00
2019-03-19T13:47:21.367Z,0.00
2019-03-19T13:49:49.961Z,0.00
2019-03-19T13:52:18.831Z,0.00
2019-03-19T13:54:47.412Z,0.00
2019-03-19T13:57:16.284Z,0.00
2019-03-19T13:59:44.873Z,0.00
2019-03-19T14:02:13.476Z,0.00
2019-03-19T14:04:42.295Z,0.00
2019-03-19T14:07:11.180Z,0.00
2019-03-19T14:09:40.235Z,0.00
2019-03-19T14:12:08.841Z,0.00
2019-03-19T14:14:38.136Z,0.00
2019-03-19T14:17:06.987Z,0.00
2019-03-19T14:19:35.576Z,0.00
2019-03-19T14:22:04.252Z,0.00
2019-03-19T14:24:32.905Z,0.00
2019-03-19T14:27:01.499Z,0.00
2019-03-19T14:29:30.443Z,0.00
2019-03-19T14:31:59.026Z,0.00
2019-03-19T14:34:27.894Z,0.00
2019-03-19T14:36:56.968Z,0.00
2019-03-19T14:39:25.577Z,0.00
2019-03-19T14:41:54.152Z,0.00
2019-03-19T14:44:22.772Z,0.00
2019-03-19T14:46:51.455Z,0.00
2019-03-19T14:49:20.122Z,0.00
2019-03-19T14:51:48.714Z,0.00
2019-03-19T14:54:17.418Z,0.00
2019-03-19T14:56:46.030Z,0.00
2019-03-19T14:59:14.621Z,0.00
2019-03-19T15:01:43.487Z,0.00
2019-03-19T15:04:12.088Z,0.00
2019-03-19T15:06:40.979Z,0.00
2019-03-19T15:09:09.604Z,0.00
2019-03-19T15:11:38.289Z,0.00
2019-03-19T15:14:06.897Z,0.00
2019-03-19T15:16:35.516Z,0.00
2019-03-19T15:19:04.225Z,0.00
2019-03-19T15:21:33.051Z,0.00
2019-03-19T15:24:01.636Z,0.00
2019-03-19T15:26:30.484Z,0.00
2019-03-19T15:28:59.093Z,0.00
2019-03-19T15:31:30.108Z,0.00
2019-03-19T15:33:58.227Z,0.00
2019-03-19T15:36:27.058Z,0.00
2019-03-19T15:38:55.882Z,0.00
2019-03-19T15:41:24.462Z,0.00
2019-03-19T15:43:53.103Z,0.00
2019-03-19T15:46:21.953Z,0.00
2019-03-19T15:48:50.537Z,0.00
2019-03-19T15:51:19.174Z,0.00
2019-03-19T15:53:47.785Z,0.00
2019-03-19T15:56:16.464Z,0.00
2019-03-19T15:58:45.069Z,0.00
2019-03-19T16:01:16.941Z,0.00
2019-03-19T16:03:44.769Z,0.00
2019-03-19T16:06:13.400Z,0.00
2019-03-19T16:08:41.994Z,0.00
2019-03-19T16:11:10.615Z,0.00
2019-03-19T16:13:39.444Z,0.00
2019-03-19T16:16:08.617Z,0.00
2019-03-19T16:18:37.230Z,0.00
2019-03-19T16:21:06.081Z,0.00
2019-03-19T16:23:34.963Z,0.00
2019-03-19T16:26:03.904Z,0.00
2019-03-19T16:28:32.738Z,0.00
2019-03-19T16:31:01.901Z,0.00
2019-03-19T16:33:30.489Z,0.00
2019-03-19T16:35:59.189Z,0.00
2019-03-19T16:38:27.777Z,0.00
2019-03-19T16:40:56.628Z,0.00
2019-03-19T16:43:25.533Z,0.00
2019-03-19T16:45:54.390Z,0.00
2019-03-19T16:48:22.969Z,0.00
2019-03-19T16:50:51.591Z,0.00
2019-03-19T16:53:20.439Z,0.00
2019-03-19T16:55:49.030Z,0.00
2019-03-19T16:58:17.608Z,0.00
2019-03-19T17:00:46.334Z,0.00
2019-03-19T17:03:14.917Z,0.00
2019-03-19T17:05:43.915Z,0.00
2019-03-19T17:08:12.520Z,0.00
2019-03-19T17:10:41.111Z,0.00
2019-03-19T17:13:10.604Z,0.00
2019-03-19T17:15:39.517Z,0.00
2019-03-19T17:18:08.224Z,0.00
2019-03-19T17:20:37.043Z,0.00
2019-03-19T17:23:05.695Z,0.00
2019-03-19T17:25:34.321Z,0.00
2019-03-19T17:28:03.982Z,0.00
2019-03-19T17:30:32.578Z,0.00
2019-03-19T17:33:01.400Z,0.00
2019-03-19T17:35:30.460Z,0.03
2019-03-19T17:37:59.068Z,0.00
2019-03-19T17:40:28.134Z,0.00
2019-03-19T17:42:56.741Z,0.00
2019-03-19T17:45:25.352Z,0.00
2019-03-19T17:47:54.202Z,0.00
2019-03-19T17:50:22.857Z,0.00
2019-03-19T17:52:51.582Z,0.00
2019-03-19T17:55:20.268Z,0.00
2019-03-19T17:57:48.905Z,0.00
2019-03-19T18:00:21.377Z,0.00
2019-03-19T18:02:49.990Z,0.00
2019-03-19T18:05:18.702Z,0.00
2019-03-19T18:07:47.298Z,0.00
2019-03-19T18:10:16.439Z,0.00
2019-03-19T18:12:45.280Z,0.00
2019-03-19T18:15:14.505Z,0.00
2019-03-19T18:17:43.156Z,0.00
2019-03-19T18:20:11.815Z,0.00
2019-03-19T18:22:40.415Z,0.07
2019-03-19T18:25:09.309Z,0.00
2019-03-19T18:27:37.987Z,0.00
2019-03-19T18:30:07.647Z,0.00
2019-03-19T18:32:36.254Z,0.00
2019-03-19T18:35:05.263Z,0.00
2019-03-19T18:37:33.882Z,0.00
2019-03-19T18:40:02.708Z,0.00
2019-03-19T18:42:31.529Z,0.00
2019-03-19T18:45:00.431Z,0.00
2019-03-19T18:47:28.973Z,0.10
2019-03-19T18:49:57.940Z,0.00
2019-03-19T18:52:27.284Z,0.00
2019-03-19T18:54:55.915Z,0.00
2019-03-19T18:57:24.818Z,0.00
2019-03-19T18:59:53.446Z,0.00
2019-03-19T19:02:22.089Z,0.00
2019-03-19T19:04:50.697Z,0.00
2019-03-19T19:07:19.810Z,0.10
2019-03-19T19:09:48.442Z,0.00
2019-03-19T19:12:17.061Z,0.10
2019-03-19T19:14:45.979Z,0.10
2019-03-19T19:17:14.583Z,0.20
2019-03-19T19:19:43.188Z,0.30
2019-03-19T19:22:11.862Z,0.20
2019-03-19T19:24:40.538Z,0.40
2019-03-19T19:27:09.408Z,0.30
2019-03-19T19:29:38.460Z,0.35
2019-03-19T19:32:07.284Z,0.20
2019-03-19T19:34:35.877Z,0.33
2019-03-19T19:37:05.200Z,0.20
2019-03-19T19:39:34.129Z,0.40
2019-03-19T19:42:02.982Z,0.75
2019-03-19T19:44:31.791Z,1.20
2019-03-19T19:47:00.626Z,0.78
2019-03-19T19:49:29.483Z,0.60
2019-03-19T19:51:58.337Z,1.00
2019-03-19T19:54:26.939Z,0.55
2019-03-19T19:56:55.770Z,0.60
2019-03-19T19:59:25.016Z,0.90
2019-03-19T20:01:53.599Z,0.72
2019-03-19T20:04:22.448Z,0.62
2019-03-19T20:06:51.348Z,1.05
2019-03-19T20:09:19.943Z,0.90
2019-03-19T20:11:48.694Z,0.85
2019-03-19T20:14:17.291Z,0.93
2019-03-19T20:16:46.015Z,1.30
2019-03-19T20:19:14.635Z,1.15
2019-03-19T20:21:43.242Z,1.35
2019-03-19T20:24:11.891Z,1.70
2019-03-19T20:26:40.513Z,1.40
2019-03-19T20:29:09.677Z,1.60
2019-03-19T20:31:38.595Z,1.40
2019-03-19T20:34:07.169Z,1.20
2019-03-19T20:36:35.785Z,1.45
2019-03-19T20:39:06.967Z,1.65
2019-03-19T20:41:35.760Z,1.20
2019-03-19T20:44:04.520Z,1.70
2019-03-19T20:46:33.111Z,2.08
2019-03-19T20:49:01.704Z,1.60
2019-03-19T20:51:30.590Z,1.50
2019-03-19T20:53:59.184Z,1.87
2019-03-19T20:56:27.822Z,1.70
2019-03-19T20:58:56.639Z,1.70
2019-03-19T21:01:25.285Z,1.40
2019-03-19T21:03:53.973Z,2.42
2019-03-19T21:06:23.700Z,1.20
2019-03-19T21:08:52.307Z,1.32
2019-03-19T21:11:20.913Z,1.45
2019-03-19T21:13:49.521Z,1.17
2019-03-19T21:16:18.231Z,1.40
2019-03-19T21:18:46.813Z,1.52
2019-03-19T21:21:16.115Z,1.80
2019-03-19T21:23:44.711Z,1.50
2019-03-19T21:26:13.884Z,1.77
2019-03-19T21:28:42.485Z,1.62
2019-03-19T21:31:12.228Z,2.85
2019-03-19T21:33:50.862Z,2.72
2019-03-19T21:36:11.497Z,2.33
2019-03-19T21:38:40.050Z,2.55
2019-03-19T21:41:08.698Z,2.85
2019-03-19T21:43:37.470Z,2.30
2019-03-19T21:46:07.239Z,2.80
2019-03-19T21:48:35.840Z,3.92
2019-03-19T21:51:04.450Z,4.50
2019-03-19T21:53:33.492Z,3.77
2019-03-19T21:56:02.179Z,3.12
2019-03-19T21:58:30.763Z,3.37
2019-03-19T22:00:59.445Z,3.62
2019-03-19T22:03:28.259Z,3.55
2019-03-19T22:05:57.118Z,3.52
2019-03-19T22:08:25.973Z,3.15
2019-03-19T22:10:55.091Z,2.92
2019-03-19T22:13:23.679Z,3.45
2019-03-19T22:15:52.276Z,3.35
2019-03-19T22:18:21.103Z,3.40
2019-03-19T22:20:49.701Z,4.00
2019-03-19T22:23:18.290Z,3.72
2019-03-19T22:25:47.118Z,4.15
2019-03-19T22:28:15.953Z,4.25
2019-03-19T22:30:44.575Z,4.85
2019-03-19T22:33:13.201Z,4.58
2019-03-19T22:35:41.783Z,4.72
2019-03-19T22:38:10.408Z,4.65
2019-03-19T22:40:38.995Z,5.47
2019-03-19T22:43:07.835Z,6.10
2019-03-19T22:45:36.432Z,5.10
2019-03-19T22:48:05.042Z,4.05
2019-03-19T22:50:33.630Z,4.00
2019-03-19T22:53:02.526Z,4.80
2019-03-19T22:55:31.390Z,4.50
2019-03-19T22:57:59.985Z,3.90
2019-03-19T23:00:42.246Z,4.50
2019-03-19T23:03:10.868Z,5.15
2019-03-19T23:05:39.762Z,4.85
2019-03-19T23:08:08.424Z,4.80
2019-03-19T23:10:37.406Z,5.17
2019-03-19T23:13:06.045Z,5.28
2019-03-19T23:15:35.007Z,4.62
2019-03-19T23:18:03.786Z,6.03
2019-03-19T23:20:32.427Z,5.60
2019-03-19T23:23:01.299Z,5.03
2019-03-19T23:25:29.990Z,5.92
2019-03-19T23:27:58.625Z,5.78
2019-03-19T23:30:27.474Z,4.90
2019-03-19T23:32:56.123Z,5.72
2019-03-19T23:35:24.951Z,4.90
2019-03-19T23:37:53.816Z,4.25
2019-03-19T23:40:22.451Z,5.60
2019-03-19T23:42:51.568Z,5.47
2019-03-19T23:45:20.415Z,5.05
2019-03-19T23:47:48.995Z,3.92
2019-03-19T23:50:17.737Z,3.70
2019-03-19T23:52:46.386Z,5.08
2019-03-19T23:55:14.981Z,4.30
2019-03-19T23:57:43.904Z,4.90
